Terminal Aerodrome Forecast
Issued by NWS Spokane, WA

Home | Current Version | Previous Version | Text Only | Print | Product List | Glossary On
Versions: 1 2 3 4 5 6 7 8 9 10 11 12 13 14 15 16 17 18 19 20 21 22 23 24 25 26 27 28 29 30 31 32 33 34
938
FTUS46 KOTX 111735
TAFGEG
TAF
KGEG 111735Z 1118/1218 05006KT 1/4SM FG VV001
     FM112200 06006KT 3SM BR SCT001 OVC004
     FM120300 07004KT 1SM -RA BR OVC005
     FM120800 07004KT 1/4SM FG OVC001
     FM121200 10003KT 2SM -RA BR OVC003=

USA.gov is the U.S. government's official web portal to all federal, state and local government web resources and services.